Time;durP1;ratioP1;P1;durP2;ratioP2;P2;SDS_P1;SDS_P2;PMS_P1;PMS_P2;Temp;Humidity;BMP_temperature;BMP_pressure;BME280_temperature;BME280_humidity;BME280_pressure;Samples;Min_cycle;Max_cycle;Signal;HPM_P1;HPM_P2
2022/05/20 01:02:54;;;;;;;10.68;5.80;;;;;;;;;;7337876;19;20026;-74
2022/05/20 01:05:23;;;;;;;9.52;5.60;;;;;;;;;;7358398;19;20835;-75
2022/05/20 01:07:48;;;;;;;10.60;6.65;;;;;;;;;;7359861;19;20014;-74
2022/05/20 01:12:53;;;;;;;11.93;6.80;;;;;;;;;;7358645;19;20043;-79
2022/05/20 01:15:18;;;;;;;9.35;5.63;;;;;;;;;;7370980;19;20026;-77
2022/05/20 01:17:44;;;;;;;10.23;5.75;;;;;;;;;;7371849;19;20010;-75
2022/05/20 01:20:12;;;;;;;10.18;6.25;;;;;;;;;;7380979;19;20094;-79
2022/05/20 01:22:40;;;;;;;10.57;6.78;;;;;;;;;;7380743;19;20026;-75
2022/05/20 01:25:07;;;;;;;10.93;6.57;;;;;;;;;;7371156;19;20461;-75
2022/05/20 01:27:32;;;;;;;9.07;4.57;;;;;;;;;;7378290;19;20010;-78
2022/05/20 01:29:57;;;;;;;9.00;6.10;;;;;;;;;;7379899;19;20486;-77
2022/05/20 01:32:23;;;;;;;9.27;6.50;;;;;;;;;;7373217;19;20109;-80
2022/05/20 01:34:48;;;;;;;10.25;6.47;;;;;;;;;;7378202;19;20019;-76
2022/05/20 01:37:14;;;;;;;10.25;5.85;;;;;;;;;;7373377;19;20019;-79
2022/05/20 01:39:39;;;;;;;8.77;5.15;;;;;;;;;;7378220;19;20014;-82
2022/05/20 01:42:06;;;;;;;9.57;6.00;;;;;;;;;;7376950;19;20011;-81
2022/05/20 01:44:34;;;;;;;10.48;5.97;;;;;;;;;;7375816;19;20011;-79
2022/05/20 01:47:13;;;;;;;8.85;5.72;;;;;;;;;;7381356;19;20021;-77
2022/05/20 01:49:51;;;;;;;10.18;5.85;;;;;;;;;;7381918;19;20014;-78
2022/05/20 01:52:30;;;;;;;9.50;6.22;;;;;;;;;;7376994;19;20018;-79
2022/05/20 01:55:01;;;;;;;9.57;5.43;;;;;;;;;;7380388;19;20014;-77
2022/05/20 01:57:34;;;;;;;10.95;6.63;;;;;;;;;;7370769;19;20006;-80
2022/05/20 02:00:03;;;;;;;13.80;6.50;;;;;;;;;;7380365;19;20637;-76
2022/05/20 02:02:32;;;;;;;9.63;5.57;;;;;;;;;;7378088;19;20011;-81
2022/05/20 02:05:00;;;;;;;10.10;5.30;;;;;;;;;;7380911;19;20316;-79
2022/05/20 02:07:27;;;;;;;9.25;5.47;;;;;;;;;;7372206;19;20006;-80
2022/05/20 02:09:56;;;;;;;10.88;6.38;;;;;;;;;;7377831;19;20023;-77
2022/05/20 02:12:23;;;;;;;10.75;6.03;;;;;;;;;;7379960;19;20010;-77
2022/05/20 02:14:55;;;;;;;8.85;5.80;;;;;;;;;;7373184;19;20462;-78
2022/05/20 02:17:34;;;;;;;8.50;6.00;;;;;;;;;;7372711;19;20015;-82
2022/05/20 02:20:04;;;;;;;10.60;6.82;;;;;;;;;;7375397;19;20469;-77
2022/05/20 02:22:32;;;;;;;10.93;6.13;;;;;;;;;;7374808;19;20002;-77
2022/05/20 02:24:58;;;;;;;9.88;5.72;;;;;;;;;;7378906;19;20114;-76
2022/05/20 02:27:26;;;;;;;9.70;5.55;;;;;;;;;;7374629;19;20343;-78
2022/05/20 02:30:11;;;;;;;9.80;6.13;;;;;;;;;;7377594;19;20011;-77
2022/05/20 02:32:50;;;;;;;9.90;5.80;;;;;;;;;;7366429;19;20018;-77
2022/05/20 02:35:15;;;;;;;10.18;6.45;;;;;;;;;;7381108;19;20015;-78
2022/05/20 02:37:40;;;;;;;12.90;6.90;;;;;;;;;;7378054;19;20015;-81
2022/05/20 02:40:08;;;;;;;9.17;6.33;;;;;;;;;;7375304;19;20256;-76
2022/05/20 02:42:33;;;;;;;12.25;6.93;;;;;;;;;;7371077;19;20254;-78
2022/05/20 02:44:59;;;;;;;10.33;7.10;;;;;;;;;;7377072;19;20330;-76
2022/05/20 02:47:26;;;;;;;14.23;7.03;;;;;;;;;;7379911;19;20247;-76
2022/05/20 02:49:51;;;;;;;9.18;6.38;;;;;;;;;;7377925;19;20047;-77
2022/05/20 02:52:16;;;;;;;12.70;7.77;;;;;;;;;;7377862;19;20011;-77
2022/05/20 02:54:41;;;;;;;13.40;8.30;;;;;;;;;;7374356;19;20027;-78
2022/05/20 02:57:06;;;;;;;10.27;7.10;;;;;;;;;;7377813;19;20003;-76
2022/05/20 03:04:59;;;;;;;12.13;7.72;;;;;;;;;;7377934;19;20025;-79
2022/05/20 03:07:25;;;;;;;12.03;8.00;;;;;;;;;;7375172;19;20552;-77
2022/05/20 03:09:52;;;;;;;11.90;9.10;;;;;;;;;;7377173;19;20263;-77
2022/05/20 03:12:17;;;;;;;14.85;9.88;;;;;;;;;;7375080;19;20043;-79
2022/05/20 03:14:42;;;;;;;14.52;10.48;;;;;;;;;;7377126;19;20356;-77
2022/05/20 03:17:08;;;;;;;15.02;9.77;;;;;;;;;;7371474;19;20013;-76
2022/05/20 03:19:33;;;;;;;17.20;11.37;;;;;;;;;;7369928;19;20099;-78
2022/05/20 03:21:58;;;;;;;15.70;10.23;;;;;;;;;;7376529;19;20006;-76
2022/05/20 03:24:24;;;;;;;12.88;8.88;;;;;;;;;;7371078;19;20014;-78
2022/05/20 03:26:49;;;;;;;13.53;9.30;;;;;;;;;;7369456;19;20040;-77
2022/05/20 03:29:15;;;;;;;14.25;9.82;;;;;;;;;;7367412;19;20261;-81
2022/05/20 03:31:40;;;;;;;13.85;8.70;;;;;;;;;;7376456;19;20081;-76
2022/05/20 03:34:06;;;;;;;13.95;9.20;;;;;;;;;;7370156;19;20088;-78
2022/05/20 03:36:35;;;;;;;16.40;9.95;;;;;;;;;;7376178;19;20023;-82
2022/05/20 03:39:01;;;;;;;16.33;10.60;;;;;;;;;;7375740;19;20014;-76
2022/05/20 03:41:26;;;;;;;13.10;9.50;;;;;;;;;;7368307;19;20131;-76
2022/05/20 03:43:51;;;;;;;13.30;8.20;;;;;;;;;;7374570;19;20010;-79
2022/05/20 03:46:16;;;;;;;14.00;9.37;;;;;;;;;;7376591;19;20006;-77
2022/05/20 03:48:41;;;;;;;16.30;11.47;;;;;;;;;;7372882;19;20006;-79
2022/05/20 03:51:08;;;;;;;16.97;10.90;;;;;;;;;;7378411;19;20002;-79
2022/05/20 03:53:34;;;;;;;17.52;11.48;;;;;;;;;;7377184;19;20007;-78
2022/05/20 03:55:59;;;;;;;17.50;11.57;;;;;;;;;;7375260;19;20837;-78
2022/05/20 03:58:24;;;;;;;18.73;12.23;;;;;;;;;;7369067;19;20287;-78
2022/05/20 04:03:33;;;;;;;14.60;11.55;;;;;;;;;;7364262;19;20133;-78
2022/05/20 04:06:00;;;;;;;16.37;11.33;;;;;;;;;;7373335;19;20035;-80
2022/05/20 04:08:27;;;;;;;16.95;11.45;;;;;;;;;;7378576;19;20006;-78
2022/05/20 04:10:53;;;;;;;16.35;11.18;;;;;;;;;;7371196;19;20042;-77
2022/05/20 04:13:21;;;;;;;13.95;10.68;;;;;;;;;;7373548;19;19994;-81
2022/05/20 04:15:46;;;;;;;17.25;12.50;;;;;;;;;;7375719;19;20025;-78
2022/05/20 04:18:11;;;;;;;16.73;12.45;;;;;;;;;;7368659;19;19994;-79
2022/05/20 04:20:36;;;;;;;17.57;12.50;;;;;;;;;;7370797;19;20014;-82
2022/05/20 04:23:01;;;;;;;17.83;12.63;;;;;;;;;;7363903;19;20389;-79
2022/05/20 04:25:26;;;;;;;16.30;12.40;;;;;;;;;;7370145;19;20252;-81
2022/05/20 04:27:52;;;;;;;18.40;12.17;;;;;;;;;;7366741;19;20278;-78
2022/05/20 04:30:17;;;;;;;16.90;11.40;;;;;;;;;;7367868;19;20613;-81
2022/05/20 04:32:42;;;;;;;15.07;11.40;;;;;;;;;;7359261;19;20016;-79
2022/05/20 04:35:07;;;;;;;17.77;11.53;;;;;;;;;;7373538;19;20018;-78
2022/05/20 04:37:32;;;;;;;14.68;10.27;;;;;;;;;;7372891;19;20018;-77
2022/05/20 04:39:58;;;;;;;15.23;11.13;;;;;;;;;;7371458;19;20019;-79
2022/05/20 04:47:51;;;;;;;16.97;11.13;;;;;;;;;;7362137;19;19905;-78
2022/05/20 04:50:16;;;;;;;15.80;10.83;;;;;;;;;;7373711;19;20014;-81
2022/05/20 04:52:41;;;;;;;17.13;11.07;;;;;;;;;;7373402;19;20254;-77
2022/05/20 04:55:07;;;;;;;19.03;12.40;;;;;;;;;;7362608;19;20418;-79
2022/05/20 04:57:43;;;;;;;17.73;11.75;;;;;;;;;;7357957;19;20052;-82
2022/05/20 05:00:14;;;;;;;18.95;11.95;;;;;;;;;;7373733;19;20022;-79
2022/05/20 05:02:39;;;;;;;17.52;10.77;;;;;;;;;;7362047;19;20465;-79
2022/05/20 05:05:06;;;;;;;15.43;10.00;;;;;;;;;;7356432;19;20066;-77
2022/05/20 05:07:31;;;;;;;17.05;10.05;;;;;;;;;;7363746;19;20044;-81
2022/05/20 05:09:58;;;;;;;15.15;10.07;;;;;;;;;;7374522;19;19994;-82
2022/05/20 05:12:23;;;;;;;17.40;10.15;;;;;;;;;;7376915;19;20840;-80
2022/05/20 05:14:49;;;;;;;15.13;9.93;;;;;;;;;;7377086;19;19999;-80
2022/05/20 05:17:16;;;;;;;16.23;9.35;;;;;;;;;;7376368;19;20255;-80
2022/05/20 05:19:44;;;;;;;12.68;7.82;;;;;;;;;;7376135;19;20030;-78
2022/05/20 05:22:09;;;;;;;12.95;8.70;;;;;;;;;;7371273;19;20022;-80
2022/05/20 05:24:35;;;;;;;14.55;9.63;;;;;;;;;;7380286;19;20039;-81
2022/05/20 05:27:01;;;;;;;14.18;9.73;;;;;;;;;;7376730;19;20492;-78
2022/05/20 05:29:26;;;;;;;12.43;9.63;;;;;;;;;;7376942;19;20014;-79
2022/05/20 05:31:52;;;;;;;13.07;10.07;;;;;;;;;;7361139;19;20018;-78
2022/05/20 05:34:17;;;;;;;13.50;10.63;;;;;;;;;;7365928;19;20658;-78
2022/05/20 05:36:42;;;;;;;16.55;11.50;;;;;;;;;;7375101;19;20011;-81
2022/05/20 05:39:07;;;;;;;16.30;10.80;;;;;;;;;;7370027;19;20029;-79
2022/05/20 05:41:33;;;;;;;15.87;11.53;;;;;;;;;;7376556;19;20020;-78
2022/05/20 05:44:03;;;;;;;14.73;10.52;;;;;;;;;;7376075;19;20003;-78
2022/05/20 05:46:29;;;;;;;20.15;11.63;;;;;;;;;;7383011;19;20022;-79
2022/05/20 05:48:54;;;;;;;16.35;11.73;;;;;;;;;;7370582;19;20010;-77
2022/05/20 05:51:19;;;;;;;17.47;11.80;;;;;;;;;;7371472;19;20595;-78
2022/05/20 05:53:45;;;;;;;16.50;10.67;;;;;;;;;;7382722;19;20252;-79
2022/05/20 05:56:10;;;;;;;17.17;10.93;;;;;;;;;;7382917;19;20589;-77
2022/05/20 05:58:35;;;;;;;17.60;11.20;;;;;;;;;;7379580;19;20340;-81
2022/05/20 06:01:01;;;;;;;20.02;11.25;;;;;;;;;;7379678;19;20006;-79
2022/05/20 06:03:26;;;;;;;16.70;11.30;;;;;;;;;;7377571;19;20015;-77
2022/05/20 06:05:52;;;;;;;17.40;11.02;;;;;;;;;;7378888;19;20363;-82
2022/05/20 06:08:17;;;;;;;15.40;11.20;;;;;;;;;;7373024;19;20010;-82
2022/05/20 06:10:43;;;;;;;18.37;11.33;;;;;;;;;;7365371;19;20809;-77
2022/05/20 06:13:08;;;;;;;17.48;11.43;;;;;;;;;;7376033;19;20239;-78
2022/05/20 06:15:34;;;;;;;15.85;11.65;;;;;;;;;;7371660;19;20037;-80
2022/05/20 06:17:59;;;;;;;20.83;11.25;;;;;;;;;;7375234;19;20023;-77
2022/05/20 06:20:25;;;;;;;14.63;11.35;;;;;;;;;;7380441;19;20015;-78
2022/05/20 06:22:50;;;;;;;15.05;10.50;;;;;;;;;;7382660;19;20013;-80
2022/05/20 06:25:16;;;;;;;14.48;10.15;;;;;;;;;;7384320;19;20014;-78
2022/05/20 06:27:42;;;;;;;14.65;10.40;;;;;;;;;;7383949;19;20327;-79
2022/05/20 06:30:09;;;;;;;15.82;11.63;;;;;;;;;;7381998;19;20022;-78
2022/05/20 06:32:34;;;;;;;17.77;10.93;;;;;;;;;;7381674;19;20022;-79
2022/05/20 06:40:34;;;;;;;13.50;10.15;;;;;;;;;;7380427;19;20151;-75
2022/05/20 06:43:00;;;;;;;15.20;10.07;;;;;;;;;;7382754;19;20018;-77
2022/05/20 06:45:25;;;;;;;13.60;10.70;;;;;;;;;;7381498;19;20356;-81
2022/05/20 06:47:50;;;;;;;13.82;10.23;;;;;;;;;;7379544;19;20688;-77
2022/05/20 06:50:15;;;;;;;16.20;10.70;;;;;;;;;;7383693;19;20467;-78
2022/05/20 06:52:41;;;;;;;14.52;10.32;;;;;;;;;;7383448;19;19994;-78
2022/05/20 06:55:07;;;;;;;13.07;10.18;;;;;;;;;;7376643;19;20115;-76
2022/05/20 06:57:35;;;;;;;11.90;9.38;;;;;;;;;;7374815;19;20079;-76
2022/05/20 07:00:01;;;;;;;15.10;9.80;;;;;;;;;;7379161;19;19998;-77
2022/05/20 07:02:26;;;;;;;13.98;9.70;;;;;;;;;;7376904;19;20018;-78
2022/05/20 07:04:51;;;;;;;16.93;9.40;;;;;;;;;;7374275;19;20070;-81
2022/05/20 07:07:17;;;;;;;13.23;9.87;;;;;;;;;;7381548;19;20319;-76
2022/05/20 07:09:42;;;;;;;12.63;8.60;;;;;;;;;;7380152;19;20669;-77
2022/05/20 07:12:07;;;;;;;15.00;8.87;;;;;;;;;;7379919;19;20298;-76
2022/05/20 07:14:33;;;;;;;13.35;8.65;;;;;;;;;;7374059;19;20013;-78
2022/05/20 07:17:00;;;;;;;14.13;9.40;;;;;;;;;;7376893;19;20339;-81
2022/05/20 07:19:25;;;;;;;14.63;9.90;;;;;;;;;;7373544;19;20275;-77
2022/05/20 07:21:50;;;;;;;12.63;8.60;;;;;;;;;;7383507;19;20014;-75
2022/05/20 07:24:15;;;;;;;13.77;8.63;;;;;;;;;;7379993;19;20372;-77
2022/05/20 07:26:40;;;;;;;14.53;8.90;;;;;;;;;;7376521;19;20015;-76
2022/05/20 07:29:06;;;;;;;12.10;8.07;;;;;;;;;;7383213;19;20629;-75
2022/05/20 07:31:32;;;;;;;12.50;8.57;;;;;;;;;;7383565;19;20040;-76
2022/05/20 07:33:57;;;;;;;12.40;8.98;;;;;;;;;;7376993;19;20474;-76
2022/05/20 07:36:22;;;;;;;11.23;8.07;;;;;;;;;;7381615;19;20402;-77
2022/05/20 07:38:48;;;;;;;11.07;7.72;;;;;;;;;;7380385;19;19999;-81
2022/05/20 07:41:13;;;;;;;11.95;7.13;;;;;;;;;;7378365;19;20002;-76
2022/05/20 07:43:39;;;;;;;9.65;6.55;;;;;;;;;;7381738;19;20025;-78
2022/05/20 07:46:04;;;;;;;9.88;6.38;;;;;;;;;;7379739;19;19999;-82
2022/05/20 07:48:30;;;;;;;10.15;6.85;;;;;;;;;;7376456;19;20037;-78
2022/05/20 07:50:57;;;;;;;11.88;5.95;;;;;;;;;;7379680;19;20404;-76
2022/05/20 07:53:32;;;;;;;10.02;5.60;;;;;;;;;;7379941;19;20029;-78
2022/05/20 07:55:59;;;;;;;8.57;5.53;;;;;;;;;;7375546;19;20045;-80
2022/05/20 07:58:30;;;;;;;8.77;5.28;;;;;;;;;;7376743;19;19999;-78
2022/05/20 08:00:58;;;;;;;7.60;5.13;;;;;;;;;;7377034;19;20011;-80
2022/05/20 08:06:08;;;;;;;9.23;5.15;;;;;;;;;;7380086;19;20035;-76
2022/05/20 08:08:33;;;;;;;8.85;5.10;;;;;;;;;;7378786;19;20006;-77
2022/05/20 08:10:59;;;;;;;8.10;5.00;;;;;;;;;;7376377;19;20010;-75
2022/05/20 08:13:25;;;;;;;10.37;5.80;;;;;;;;;;7378038;19;20006;-77
2022/05/20 08:15:50;;;;;;;8.48;5.10;;;;;;;;;;7376985;19;20044;-76
2022/05/20 08:18:17;;;;;;;8.13;5.40;;;;;;;;;;7373821;19;20010;-77
2022/05/20 08:20:42;;;;;;;8.90;5.20;;;;;;;;;;7375913;19;20251;-76
2022/05/20 08:23:08;;;;;;;11.20;5.33;;;;;;;;;;7379086;19;20042;-77
2022/05/20 08:25:35;;;;;;;8.82;6.03;;;;;;;;;;7377759;19;20027;-76
2022/05/20 08:28:00;;;;;;;12.35;6.15;;;;;;;;;;7377853;19;20015;-79
2022/05/20 08:30:26;;;;;;;10.20;5.60;;;;;;;;;;7377694;19;20014;-75
2022/05/20 08:32:51;;;;;;;8.80;5.32;;;;;;;;;;7377502;19;20418;-76
2022/05/20 08:35:17;;;;;;;11.00;6.38;;;;;;;;;;7378128;19;20468;-78
2022/05/20 08:37:43;;;;;;;11.68;6.15;;;;;;;;;;7379238;19;20006;-80
2022/05/20 08:40:10;;;;;;;10.15;6.07;;;;;;;;;;7379319;19;20014;-79
2022/05/20 08:42:35;;;;;;;11.45;6.35;;;;;;;;;;7378459;19;20101;-75
2022/05/20 08:45:01;;;;;;;11.05;5.90;;;;;;;;;;7385574;19;20131;-78
2022/05/20 08:47:43;;;;;;;10.60;6.65;;;;;;;;;;7385249;19;20007;-77
2022/05/20 08:50:12;;;;;;;11.68;5.68;;;;;;;;;;7386291;19;20366;-79
2022/05/20 08:52:37;;;;;;;12.27;6.47;;;;;;;;;;7388355;19;20011;-76
2022/05/20 08:55:02;;;;;;;16.10;6.65;;;;;;;;;;7386792;19;20031;-77
2022/05/20 08:57:29;;;;;;;13.35;7.57;;;;;;;;;;7383457;19;20740;-75
2022/05/20 08:59:55;;;;;;;16.55;6.95;;;;;;;;;;7385897;19;20010;-76
2022/05/20 09:02:21;;;;;;;13.60;7.78;;;;;;;;;;7383768;19;20024;-76
2022/05/20 09:04:46;;;;;;;13.68;8.27;;;;;;;;;;7382887;19;19994;-77
2022/05/20 09:07:14;;;;;;;15.52;7.63;;;;;;;;;;7379431;19;20010;-76
2022/05/20 09:09:39;;;;;;;11.90;7.45;;;;;;;;;;7382389;19;20068;-77
2022/05/20 09:12:05;;;;;;;11.80;8.25;;;;;;;;;;7386357;19;20048;-76
2022/05/20 09:17:14;;;;;;;;;;;;;;;;;;7383082;19;20042;-82
2022/05/20 09:19:52;;;;;;;10.50;8.27;;;;;;;;;;7379631;19;19907;-74
2022/05/20 09:22:17;;;;;;;13.32;8.73;;;;;;;;;;7384903;19;20403;-76
2022/05/20 09:24:44;;;;;;;12.05;8.65;;;;;;;;;;7385453;19;20026;-76
2022/05/20 09:27:10;;;;;;;12.80;8.35;;;;;;;;;;7380922;19;20017;-78
2022/05/20 09:29:38;;;;;;;14.63;8.82;;;;;;;;;;7384914;19;20007;-75
2022/05/20 09:32:05;;;;;;;18.75;9.10;;;;;;;;;;7383430;19;20013;-76
2022/05/20 09:34:32;;;;;;;18.02;8.40;;;;;;;;;;7384016;19;19999;-80
2022/05/20 09:37:00;;;;;;;13.05;8.98;;;;;;;;;;7385536;19;20018;-75
2022/05/20 09:39:36;;;;;;;18.98;9.32;;;;;;;;;;7383824;19;20007;-79
2022/05/20 09:42:09;;;;;;;14.90;9.18;;;;;;;;;;7385117;19;20018;-77
2022/05/20 09:44:39;;;;;;;19.10;8.88;;;;;;;;;;7382419;19;19991;-79
2022/05/20 09:47:10;;;;;;;18.88;9.57;;;;;;;;;;7381303;19;20450;-79
2022/05/20 09:49:52;;;;;;;13.23;9.40;;;;;;;;;;7383017;19;20006;-76
2022/05/20 09:52:21;;;;;;;13.55;9.45;;;;;;;;;;7385940;19;20022;-75
2022/05/20 09:54:49;;;;;;;15.57;9.43;;;;;;;;;;7382174;19;20021;-78
2022/05/20 09:57:14;;;;;;;12.98;9.82;;;;;;;;;;7384982;19;20020;-78
2022/05/20 09:59:42;;;;;;;19.33;10.65;;;;;;;;;;7379705;19;20073;-77
2022/05/20 10:02:13;;;;;;;17.55;10.43;;;;;;;;;;7380577;19;20010;-75
2022/05/20 10:04:58;;;;;;;18.77;11.18;;;;;;;;;;7381950;19;19993;-77
2022/05/20 10:07:33;;;;;;;15.50;9.38;;;;;;;;;;7382819;19;20033;-77
2022/05/20 10:10:03;;;;;;;17.65;10.23;;;;;;;;;;7376176;19;20038;-78
2022/05/20 10:12:30;;;;;;;14.95;8.77;;;;;;;;;;7384027;19;20039;-79
2022/05/20 10:15:02;;;;;;;14.73;8.32;;;;;;;;;;7381138;19;20015;-77
2022/05/20 10:17:30;;;;;;;19.15;9.02;;;;;;;;;;7378139;19;20022;-75
2022/05/20 10:20:12;;;;;;;17.02;9.10;;;;;;;;;;7377391;19;20015;-75
2022/05/20 10:22:56;;;;;;;15.88;9.18;;;;;;;;;;7380103;19;20014;-79
2022/05/20 10:25:29;;;;;;;17.58;8.82;;;;;;;;;;7380763;19;20018;-78
2022/05/20 10:28:02;;;;;;;17.17;8.82;;;;;;;;;;7380564;19;20273;-75
2022/05/20 10:33:31;;;;;;;17.60;10.60;;;;;;;;;;7373794;19;20021;-75
2022/05/20 10:35:56;;;;;;;19.65;11.07;;;;;;;;;;7380925;19;20077;-76
2022/05/20 10:38:50;;;;;;;17.80;11.40;;;;;;;;;;7382565;19;20659;-80
2022/05/20 10:41:25;;;;;;;21.47;12.90;;;;;;;;;;7379968;19;20243;-78
2022/05/20 10:49:59;;;;;;;21.30;11.80;;;;;;;;;;7382906;19;20707;-76
2022/05/20 10:52:38;;;;;;;20.88;12.23;;;;;;;;;;7382787;19;20460;-77
2022/05/20 10:55:06;;;;;;;21.23;12.50;;;;;;;;;;7383254;19;20027;-81
2022/05/20 10:57:32;;;;;;;17.10;12.15;;;;;;;;;;7378859;19;20039;-76
2022/05/20 11:00:03;;;;;;;20.20;13.00;;;;;;;;;;7381322;19;19999;-80
2022/05/20 11:02:39;;;;;;;18.52;12.48;;;;;;;;;;7380973;19;19999;-80
2022/05/20 11:05:07;;;;;;;22.80;12.60;;;;;;;;;;7379586;19;20006;-79
2022/05/20 11:07:32;;;;;;;18.25;12.45;;;;;;;;;;7380901;19;20043;-77
2022/05/20 11:09:58;;;;;;;16.40;12.20;;;;;;;;;;7374623;19;19999;-77
2022/05/20 11:12:41;;;;;;;22.13;13.83;;;;;;;;;;7382538;19;20247;-79
2022/05/20 11:15:07;;;;;;;;;;;;;;;;;;7348696;19;20006;-77
2022/05/20 11:17:47;;;;;;;21.63;13.95;;;;;;;;;;7348787;19;19918;-82
2022/05/20 11:20:36;;;;;;;17.27;12.55;;;;;;;;;;7362038;19;20018;-78
2022/05/20 11:23:05;;;;;;;20.73;13.15;;;;;;;;;;7378515;19;20066;-76
2022/05/20 11:25:30;;;;;;;19.98;13.02;;;;;;;;;;7367315;19;20271;-78
2022/05/20 11:28:04;;;;;;;19.85;11.43;;;;;;;;;;7373561;19;20430;-76
2022/05/20 11:30:45;;;;;;;23.83;13.07;;;;;;;;;;7380830;19;20006;-80
2022/05/20 11:33:38;;;;;;;17.98;13.10;;;;;;;;;;7368429;19;20014;-77
2022/05/20 11:36:22;;;;;;;16.67;11.93;;;;;;;;;;7376678;19;20018;-76
2022/05/20 11:38:47;;;;;;;;;;;;;;;;;;7381480;19;19998;-76
2022/05/20 11:41:16;;;;;;;21.60;14.02;;;;;;;;;;7376458;19;19930;-79
2022/05/20 11:43:45;;;;;;;19.40;14.02;;;;;;;;;;7368015;19;20619;-80
2022/05/20 11:46:28;;;;;;;24.50;13.43;;;;;;;;;;7376702;19;20505;-79
2022/05/20 11:48:54;;;;;;;;;;;;;;;;;;7374263;19;20010;-77
2022/05/20 11:51:26;;;;;;;23.80;15.32;;;;;;;;;;7381145;19;19922;-78
2022/05/20 11:54:01;;;;;;;23.20;14.85;;;;;;;;;;7378224;19;20002;-77
2022/05/20 11:56:35;;;;;;;20.50;13.82;;;;;;;;;;7368123;19;20040;-81
2022/05/20 11:59:29;;;;;;;26.00;14.32;;;;;;;;;;7369364;19;19994;-78
2022/05/20 12:01:56;;;;;;;25.48;14.15;;;;;;;;;;7374797;19;20014;-80
2022/05/20 12:04:23;;;;;;;20.75;14.00;;;;;;;;;;7374857;19;20031;-77
2022/05/20 12:06:51;;;;;;;21.42;15.02;;;;;;;;;;7372287;19;20050;-78
2022/05/20 12:09:28;;;;;;;19.33;14.48;;;;;;;;;;7377234;19;20470;-77
2022/05/20 12:12:09;;;;;;;17.10;12.60;;;;;;;;;;7372772;19;20040;-81
2022/05/20 12:14:53;;;;;;;21.73;13.85;;;;;;;;;;7374883;19;20074;-77
2022/05/20 12:17:38;;;;;;;23.77;14.43;;;;;;;;;;7371522;19;20022;-80
2022/05/20 12:25:50;;;;;;;21.63;13.15;;;;;;;;;;7385461;19;20885;-77
2022/05/20 12:28:21;;;;;;;18.65;11.88;;;;;;;;;;7379885;19;20002;-78
2022/05/20 12:31:05;;;;;;;17.95;11.52;;;;;;;;;;7380031;19;20014;-78
2022/05/20 12:33:30;;;;;;;;;;;;;;;;;;7383796;19;20030;-79
2022/05/20 12:36:15;;;;;;;16.40;10.40;;;;;;;;;;7381897;19;19974;-77
2022/05/20 12:38:41;;;;;;;14.95;10.15;;;;;;;;;;7381387;19;20027;-80
2022/05/20 12:41:15;;;;;;;18.92;11.02;;;;;;;;;;7388054;19;20003;-76
2022/05/20 12:43:41;;;;;;;17.17;10.35;;;;;;;;;;7385465;19;20010;-77
2022/05/20 12:46:11;;;;;;;17.27;9.98;;;;;;;;;;7383909;19;20012;-78
2022/05/20 12:48:36;;;;;;;20.08;9.02;;;;;;;;;;7381694;19;20003;-76
2022/05/20 12:51:06;;;;;;;17.60;9.38;;;;;;;;;;7387363;19;20375;-76
2022/05/20 12:53:38;;;;;;;20.70;9.15;;;;;;;;;;7386717;19;20022;-78
2022/05/20 12:56:03;;;;;;;16.38;9.57;;;;;;;;;;7384053;19;20002;-78
2022/05/20 12:58:30;;;;;;;15.13;9.60;;;;;;;;;;7381115;19;20488;-76
2022/05/20 13:00:58;;;;;;;18.02;9.93;;;;;;;;;;7384409;19;20019;-77
2022/05/20 13:03:26;;;;;;;15.48;9.70;;;;;;;;;;7384604;19;20021;-77
2022/05/20 13:05:58;;;;;;;14.52;9.65;;;;;;;;;;7384863;19;20014;-77
2022/05/20 13:08:31;;;;;;;21.45;12.18;;;;;;;;;;7385739;19;20010;-78
2022/05/20 13:11:05;;;;;;;16.75;10.90;;;;;;;;;;7384882;19;20010;-80
2022/05/20 13:13:31;;;;;;;16.67;11.23;;;;;;;;;;7381820;19;19999;-82
2022/05/20 13:15:58;;;;;;;18.57;12.43;;;;;;;;;;7375687;19;20006;-80
2022/05/20 13:18:25;;;;;;;21.65;11.13;;;;;;;;;;7378763;19;20342;-78
2022/05/20 13:20:51;;;;;;;17.02;11.65;;;;;;;;;;7385620;19;20340;-77
2022/05/20 13:23:36;;;;;;;23.02;11.05;;;;;;;;;;7380081;19;20026;-78
2022/05/20 13:26:02;;;;;;;18.20;10.57;;;;;;;;;;7376166;19;20014;-78
2022/05/20 13:28:28;;;;;;;17.88;9.95;;;;;;;;;;7372328;19;20078;-80
2022/05/20 13:31:10;;;;;;;13.52;8.32;;;;;;;;;;7381610;19;20010;-78
2022/05/20 13:33:37;;;;;;;17.02;8.02;;;;;;;;;;7379535;19;20017;-77
2022/05/20 13:36:03;;;;;;;13.38;8.18;;;;;;;;;;7383002;19;20025;-78
2022/05/20 13:38:30;;;;;;;14.48;7.03;;;;;;;;;;7380611;19;19999;-78
2022/05/20 13:40:56;;;;;;;12.07;7.75;;;;;;;;;;7381220;19;20042;-78
2022/05/20 13:43:25;;;;;;;16.02;7.47;;;;;;;;;;7384170;19;20085;-77
2022/05/20 13:51:27;;;;;;;11.77;7.38;;;;;;;;;;7382777;19;20029;-80
2022/05/20 13:53:53;;;;;;;16.10;9.93;;;;;;;;;;7383550;19;20439;-77
2022/05/20 13:56:19;;;;;;;17.92;10.38;;;;;;;;;;7381663;19;20010;-77
2022/05/20 18:41:38;;;;;;;21.65;16.17;;;;;;;;;;7339892;19;20575;-84
2022/05/20 18:44:04;;;;;;;25.38;16.27;;;;;;;;;;7338408;19;20475;-79
2022/05/20 18:46:29;;;;;;;20.80;16.60;;;;;;;;;;7337233;19;20627;-84
2022/05/20 18:48:54;;;;;;;24.23;15.97;;;;;;;;;;7342955;19;20548;-88
2022/05/20 18:51:19;;;;;;;17.93;14.13;;;;;;;;;;7338980;19;20903;-89
2022/05/20 18:53:44;;;;;;;25.53;14.37;;;;;;;;;;7340055;19;20997;-87
2022/05/20 18:56:10;;;;;;;18.70;14.02;;;;;;;;;;7316814;19;20018;-89
2022/05/20 18:58:35;;;;;;;19.50;13.63;;;;;;;;;;7339986;19;20002;-83
2022/05/20 19:01:01;;;;;;;19.48;13.43;;;;;;;;;;7349693;19;20003;-83
2022/05/20 19:03:45;;;;;;;18.50;13.95;;;;;;;;;;7343575;19;20003;-81
2022/05/20 19:06:12;;;;;;;19.17;13.98;;;;;;;;;;7335942;19;20345;-88
2022/05/20 19:08:38;;;;;;;18.13;14.93;;;;;;;;;;7337482;19;20027;-84
2022/05/20 19:11:05;;;;;;;20.63;15.03;;;;;;;;;;7346502;19;20011;-81
2022/05/20 19:13:31;;;;;;;19.33;13.70;;;;;;;;;;7337225;19;20842;-83
2022/05/20 19:15:56;;;;;;;19.47;13.73;;;;;;;;;;7346863;19;20484;-81
2022/05/20 19:18:21;;;;;;;18.13;13.63;;;;;;;;;;7344598;19;20252;-83
